Weather reports worldwide

Advertisment
La Gomera/Aeropuerto, Spain (60007): temperature & dewpoint: 02.08.2020 18:00:00 - 08.08.2020 18:00:00 (WEST)La Gomera/Aeropuerto, Spain (60007): wind speed: 02.08.2020 18:00:00 - 08.08.2020 18:00:00 (WEST)La Gomera/Aeropuerto, Spain (60007): wind direction: 02.08.2020 18:00:00 - 08.08.2020 18:00:00 (WEST)La Gomera/Aeropuerto, Spain (60007): reduced air pressure: 02.08.2020 18:00:00 - 08.08.2020 18:00:00 (WEST)La Gomera/Aeropuerto, Spain (60007): visibility: 02.08.2020 18:00:00 - 08.08.2020 18:00:00 (WEST)
Date & Time tt [°C] td [°C] ff [km/h] ff [kn] dd ppp [hPa] vv [km]
08.08.2020 18:00:00 24,0 19,0 18 10 SW - 10
08.08.2020 17:00:00 25,0 18,0 11 6 SSE - 10
08.08.2020 16:00:00 24,0 19,0 8 4 SE - 10
08.08.2020 15:00:00 25,0 19,0 22 12 SW - 10
08.08.2020 14:00:00 25,0 19,0 24 13 SW - 10
08.08.2020 13:00:00 24,6 19,0 18 10 SW 1019,9 40
08.08.2020 12:00:00 24,0 19,0 15 8 SW - 10
08.08.2020 11:00:00 24,0 18,0 9 5 SSW - 10
08.08.2020 10:00:00 22,9 18,9 9 5 SW 1019,4 10
08.08.2020 09:00:00 22,0 19,0 8 4 W - 10
08.08.2020 08:00:00 20,0 18,0 8 4 W - 10
08.08.2020 07:00:00 20,2 17,2 4 2 N 1019,7 50
08.08.2020 06:00:00 21,0 18,0 8 4 WNW - 10
08.08.2020 05:00:00 21,0 18,0 2 1 - - 10
08.08.2020 04:00:00 21,0 18,0 0 0 N - 10
08.08.2020 03:00:00 21,0 18,0 5 3 ESE - 10
08.08.2020 02:00:00 22,0 18,0 13 7 WSW - 10
08.08.2020 01:00:00 22,0 18,0 8 4 WSW - 10
08.08.2020 00:00:00 22,0 18,0 2 1 - - 10
07.08.2020 23:00:00 22,0 17,0 5 3 ENE - 10
07.08.2020 22:00:00 23,0 18,0 8 4 SW - 10
07.08.2020 21:00:00 23,0 18,0 13 7 SW - 10
07.08.2020 20:00:00 23,0 18,0 9 5 SW - 10
07.08.2020 19:00:00 24,0 18,0 9 5 SSW - 10
07.08.2020 18:00:00 24,0 18,0 9 5 SSE - 10
07.08.2020 17:00:00 24,0 18,0 11 6 SSW - 10
07.08.2020 16:00:00 23,4 18,3 18 10 SW 1019,5 10
07.08.2020 15:00:00 24,0 18,0 21 11 SW - 10
07.08.2020 14:00:00 24,0 18,0 18 10 SW - 10
07.08.2020 13:00:00 25,7 17,9 16 9 SW 1019,7 60
07.08.2020 12:00:00 24,0 18,0 15 8 SW - 10
07.08.2020 11:00:00 23,0 18,0 8 4 SW - 10
07.08.2020 10:00:00 22,4 18,4 5 3 SSW 1019,4 10
07.08.2020 09:00:00 22,0 17,0 4 2 - - 10
07.08.2020 08:00:00 21,0 18,0 0 0 N - 10
07.08.2020 07:00:00 21,3 17,7 11 6 W 1018,1 50
07.08.2020 06:00:00 22,0 18,0 5 3 WSW - 10
07.08.2020 05:00:00 22,0 18,0 4 2 - - 10
07.08.2020 04:00:00 21,0 19,0 2 1 - - 10
07.08.2020 03:00:00 21,0 18,0 4 2 - - 10
07.08.2020 02:00:00 21,0 18,0 4 2 - - 10
07.08.2020 01:00:00 22,0 18,0 8 4 SW - 10
07.08.2020 00:00:00 22,0 18,0 4 2 - - 10
06.08.2020 23:00:00 22,0 18,0 4 2 - - 10
06.08.2020 22:00:00 22,0 19,0 4 2 - - 10
06.08.2020 21:00:00 22,0 19,0 9 5 SW - 10
06.08.2020 20:00:00 23,0 18,0 15 8 SW - 10
06.08.2020 19:00:00 24,0 18,0 11 6 SW - 10
06.08.2020 18:00:00 24,0 19,0 11 6 SSW - 10
06.08.2020 17:00:00 24,0 18,0 11 6 SE - 10
06.08.2020 16:00:00 24,2 18,2 11 6 SSE 1016,5 10
06.08.2020 15:00:00 25,0 18,0 9 5 SSW - 10
06.08.2020 14:00:00 26,0 18,0 16 9 SW - 10
06.08.2020 13:00:00 23,9 17,9 22 12 SW 1016,3 50
06.08.2020 12:00:00 24,0 18,0 24 13 SW - 10
06.08.2020 11:00:00 23,0 18,0 22 12 WSW - 10
06.08.2020 10:00:00 22,8 17,7 15 8 WSW 1015,6 45
06.08.2020 09:00:00 22,0 18,0 8 4 WSW - 10
06.08.2020 08:00:00 21,0 18,0 9 5 WSW - 10
06.08.2020 07:00:00 21,4 17,6 9 5 S 1015,1 10
06.08.2020 06:00:00 21,0 19,0 2 1 - - 10
06.08.2020 05:00:00 21,0 19,0 11 6 WSW - 10
06.08.2020 04:00:00 21,0 19,0 9 5 WSW - 10
06.08.2020 03:00:00 21,0 18,0 8 4 WSW - 10
06.08.2020 02:00:00 21,0 19,0 9 5 WSW - 10
06.08.2020 01:00:00 22,0 19,0 4 2 - - 10
06.08.2020 00:00:00 22,0 18,0 4 2 - - 10
05.08.2020 23:00:00 22,0 18,0 0 0 N - 10
05.08.2020 22:00:00 22,0 19,0 8 4 WSW - 10
05.08.2020 21:00:00 23,0 19,0 9 5 E - 10
05.08.2020 20:00:00 24,0 18,0 8 4 SW - 10
05.08.2020 19:00:00 25,0 19,0 21 11 SW - 10
05.08.2020 18:00:00 26,0 19,0 18 10 SW - 10
05.08.2020 17:00:00 25,0 19,0 16 9 SW - 10
05.08.2020 16:00:00 25,6 19,3 13 7 SSW 1014,4 10
05.08.2020 15:00:00 25,0 19,0 9 5 SSW - 10
05.08.2020 14:00:00 26,0 20,0 13 7 SSW - 10
05.08.2020 13:00:00 23,8 17,8 15 8 SSW 1014,6 30
05.08.2020 12:00:00 24,0 18,0 13 7 SSW - 10
05.08.2020 11:00:00 23,0 19,0 8 4 SE - 10
05.08.2020 10:00:00 23,0 20,0 5 3 SSE - 10
05.08.2020 09:00:00 22,0 19,0 11 6 SW - 10
05.08.2020 08:00:00 21,0 19,0 15 8 WSW - 10
05.08.2020 07:00:00 21,3 18,3 15 8 W 1013,5 10
05.08.2020 06:00:00 22,0 18,0 18 10 W - 10
05.08.2020 05:00:00 22,0 18,0 21 11 WSW - 10
05.08.2020 04:00:00 21,0 17,0 11 6 W - 10
05.08.2020 03:00:00 22,0 17,0 2 1 - - 10
05.08.2020 02:00:00 22,0 18,0 13 7 WSW - 10
05.08.2020 01:00:00 22,0 18,0 11 6 WSW - 10
05.08.2020 00:00:00 22,0 19,0 11 6 SW - 10
04.08.2020 23:00:00 22,0 18,0 2 1 - - 10
04.08.2020 22:00:00 23,0 19,0 4 2 - - 10
04.08.2020 21:00:00 23,0 19,0 15 8 SW - 10
04.08.2020 20:00:00 24,0 19,0 9 5 SW - 10
04.08.2020 19:00:00 25,0 18,0 5 3 SSW - 10
04.08.2020 18:00:00 25,0 19,0 9 5 SSW - 10
04.08.2020 17:00:00 26,0 18,0 13 7 SW - 10
04.08.2020 16:00:00 26,1 18,0 13 7 SW 1013,7 10
04.08.2020 15:00:00 26,0 19,0 13 7 SW - 10
04.08.2020 14:00:00 26,0 19,0 11 6 SSW - 10
04.08.2020 13:00:00 24,8 18,3 9 5 SW 1015,3 10
04.08.2020 12:00:00 25,0 17,0 11 6 SW - 10
04.08.2020 11:00:00 24,0 17,0 8 4 SSW - 10
04.08.2020 10:00:00 23,3 17,1 5 3 SSE 1015,2 10
04.08.2020 09:00:00 23,0 17,0 4 2 - - 10
04.08.2020 08:00:00 21,0 18,0 2 1 - - 10
04.08.2020 07:00:00 21,0 16,6 5 3 W 1014,1 23
04.08.2020 06:00:00 21,0 17,0 13 7 SW - 10
04.08.2020 05:00:00 21,0 16,0 9 5 WSW - 10
04.08.2020 04:00:00 21,0 18,0 0 0 N - 10
04.08.2020 03:00:00 22,0 17,0 8 4 WSW - 10
04.08.2020 02:00:00 22,0 17,0 8 4 WSW - 10
04.08.2020 01:00:00 21,0 20,0 5 3 SW - 10
04.08.2020 00:00:00 22,0 20,0 5 3 WSW - 10
03.08.2020 23:00:00 22,0 20,0 5 3 WSW - 10
03.08.2020 22:00:00 23,0 18,0 5 3 SW - 10
03.08.2020 21:00:00 24,0 18,0 11 6 SW - 10
03.08.2020 20:00:00 26,0 18,0 11 6 WSW - 10
03.08.2020 19:00:00 25,0 21,0 11 6 SW - 10
03.08.2020 18:00:00 27,0 19,0 13 7 SW - 10
03.08.2020 17:00:00 27,0 17,0 9 5 SSW - 10
03.08.2020 16:00:00 28,0 18,0 9 5 SSW - 10
03.08.2020 15:00:00 26,0 19,0 16 9 SW - 10
03.08.2020 14:00:00 28,0 18,0 11 6 SW - 10
03.08.2020 13:00:00 27,1 17,6 9 5 SSW 1016,8 29
03.08.2020 12:00:00 27,0 18,0 8 4 SSW - 10
03.08.2020 11:00:00 26,0 18,0 11 6 SW - 10
03.08.2020 10:00:00 25,3 17,2 18 10 SW 1016,6 10
03.08.2020 09:00:00 24,0 18,0 11 6 SW - 10
03.08.2020 08:00:00 23,0 18,0 15 8 SW - 10
03.08.2020 07:00:00 22,6 18,6 15 8 WSW 1016,2 22
03.08.2020 06:00:00 23,0 18,0 15 8 SW - 10
03.08.2020 05:00:00 23,0 18,0 9 5 SSW - 10
03.08.2020 04:00:00 23,0 18,0 13 7 WSW - 10
03.08.2020 03:00:00 24,0 15,0 8 4 SW - 10
03.08.2020 02:00:00 24,0 19,0 5 3 SW - 10
03.08.2020 01:00:00 26,0 15,0 13 7 WSW - 10
03.08.2020 00:00:00 24,0 17,0 4 2 - - 10
02.08.2020 23:00:00 24,0 19,0 4 2 - - 10
02.08.2020 22:00:00 23,0 20,0 4 2 - - 10
02.08.2020 21:00:00 23,0 20,0 8 4 SW - 10
02.08.2020 20:00:00 24,0 20,0 13 7 SW - 10
02.08.2020 19:00:00 25,0 19,0 8 4 SSW - 10
02.08.2020 18:00:00 25,0 20,0 8 4 SSW - 10

tt = temperature
td = dewpoint
ff = wind speed
dd = wind direction
ppp = reduced air pressure
vv = visibility

Next stations